sensor_id;sensor_type;location;lat;lon;timestamp;P1;durP1;ratioP1;P2;durP2;ratioP2
65187;SDS011;51775;51.148;6.950;2023-02-26T00:02:23;2.30;;;1.00;;
65187;SDS011;51775;51.148;6.950;2023-02-26T00:04:48;2.15;;;1.02;;
65187;SDS011;51775;51.148;6.950;2023-02-26T00:07:13;1.73;;;1.00;;
65187;SDS011;51775;51.148;6.950;2023-02-26T00:09:39;2.05;;;1.10;;
65187;SDS011;51775;51.148;6.950;2023-02-26T00:12:04;2.10;;;0.90;;
65187;SDS011;51775;51.148;6.950;2023-02-26T00:14:30;1.88;;;1.20;;
65187;SDS011;51775;51.148;6.950;2023-02-26T00:19:20;1.95;;;1.10;;
65187;SDS011;51775;51.148;6.950;2023-02-26T00:21:46;2.17;;;1.08;;
65187;SDS011;51775;51.148;6.950;2023-02-26T00:24:11;2.40;;;1.10;;
65187;SDS011;51775;51.148;6.950;2023-02-26T00:26:37;2.03;;;1.15;;
65187;SDS011;51775;51.148;6.950;2023-02-26T00:29:02;2.80;;;1.10;;
65187;SDS011;51775;51.148;6.950;2023-02-26T00:31:28;2.15;;;1.08;;
65187;SDS011;51775;51.148;6.950;2023-02-26T00:33:54;2.28;;;1.17;;
65187;SDS011;51775;51.148;6.950;2023-02-26T00:36:21;1.88;;;1.08;;
65187;SDS011;51775;51.148;6.950;2023-02-26T00:38:55;1.90;;;1.00;;
65187;SDS011;51775;51.148;6.950;2023-02-26T00:41:21;2.63;;;1.10;;
65187;SDS011;51775;51.148;6.950;2023-02-26T00:43:46;1.70;;;1.00;;
65187;SDS011;51775;51.148;6.950;2023-02-26T00:46:33;1.90;;;1.17;;
65187;SDS011;51775;51.148;6.950;2023-02-26T00:49:09;2.25;;;1.00;;
65187;SDS011;51775;51.148;6.950;2023-02-26T00:52:00;1.77;;;1.00;;
65187;SDS011;51775;51.148;6.950;2023-02-26T00:54:29;2.20;;;1.00;;
65187;SDS011;51775;51.148;6.950;2023-02-26T00:56:56;1.67;;;0.95;;
65187;SDS011;51775;51.148;6.950;2023-02-26T00:59:22;1.92;;;1.08;;
65187;SDS011;51775;51.148;6.950;2023-02-26T01:01:49;1.40;;;0.98;;
65187;SDS011;51775;51.148;6.950;2023-02-26T01:04:15;2.15;;;1.00;;
65187;SDS011;51775;51.148;6.950;2023-02-26T01:06:44;2.17;;;1.08;;
65187;SDS011;51775;51.148;6.950;2023-02-26T01:11:54;1.65;;;0.82;;
65187;SDS011;51775;51.148;6.950;2023-02-26T01:14:22;1.70;;;0.90;;
65187;SDS011;51775;51.148;6.950;2023-02-26T01:19:49;1.83;;;1.02;;
65187;SDS011;51775;51.148;6.950;2023-02-26T01:22:27;2.15;;;1.10;;
65187;SDS011;51775;51.148;6.950;2023-02-26T01:27:59;1.45;;;0.90;;
65187;SDS011;51775;51.148;6.950;2023-02-26T01:30:24;1.65;;;0.80;;
65187;SDS011;51775;51.148;6.950;2023-02-26T01:43:34;1.23;;;0.80;;
65187;SDS011;51775;51.148;6.950;2023-02-26T01:46:20;1.95;;;1.00;;
65187;SDS011;51775;51.148;6.950;2023-02-26T01:49:07;1.25;;;0.80;;
65187;SDS011;51775;51.148;6.950;2023-02-26T01:54:18;2.10;;;1.00;;
65187;SDS011;51775;51.148;6.950;2023-02-26T01:57:13;1.95;;;1.00;;
65187;SDS011;51775;51.148;6.950;2023-02-26T01:59:45;1.70;;;0.93;;
65187;SDS011;51775;51.148;6.950;2023-02-26T02:02:15;1.83;;;0.90;;
65187;SDS011;51775;51.148;6.950;2023-02-26T02:04:42;1.83;;;1.10;;
65187;SDS011;51775;51.148;6.950;2023-02-26T02:07:10;1.40;;;0.80;;
65187;SDS011;51775;51.148;6.950;2023-02-26T02:09:36;2.25;;;1.00;;
65187;SDS011;51775;51.148;6.950;2023-02-26T02:12:23;1.67;;;0.80;;
65187;SDS011;51775;51.148;6.950;2023-02-26T02:33:46;1.17;;;0.70;;
65187;SDS011;51775;51.148;6.950;2023-02-26T02:36:23;2.40;;;0.90;;
65187;SDS011;51775;51.148;6.950;2023-02-26T02:38:56;1.20;;;0.80;;
65187;SDS011;51775;51.148;6.950;2023-02-26T02:41:27;1.77;;;0.90;;
65187;SDS011;51775;51.148;6.950;2023-02-26T02:44:00;1.52;;;0.88;;
65187;SDS011;51775;51.148;6.950;2023-02-26T02:46:29;1.85;;;0.90;;
65187;SDS011;51775;51.148;6.950;2023-02-26T02:49:00;1.10;;;0.70;;
65187;SDS011;51775;51.148;6.950;2023-02-26T02:51:32;1.35;;;0.85;;
65187;SDS011;51775;51.148;6.950;2023-02-26T02:56:42;1.13;;;0.80;;
65187;SDS011;51775;51.148;6.950;2023-02-26T03:02:16;1.38;;;0.80;;
65187;SDS011;51775;51.148;6.950;2023-02-26T03:04:50;1.63;;;0.80;;
65187;SDS011;51775;51.148;6.950;2023-02-26T03:07:16;1.85;;;0.90;;
65187;SDS011;51775;51.148;6.950;2023-02-26T03:09:41;1.40;;;0.70;;
65187;SDS011;51775;51.148;6.950;2023-02-26T03:12:06;1.30;;;0.88;;
65187;SDS011;51775;51.148;6.950;2023-02-26T03:14:32;0.98;;;0.75;;
65187;SDS011;51775;51.148;6.950;2023-02-26T03:25:16;1.55;;;0.80;;
65187;SDS011;51775;51.148;6.950;2023-02-26T03:30:18;1.58;;;0.70;;
65187;SDS011;51775;51.148;6.950;2023-02-26T03:33:07;1.60;;;0.80;;
65187;SDS011;51775;51.148;6.950;2023-02-26T03:35:36;0.63;;;0.60;;
65187;SDS011;51775;51.148;6.950;2023-02-26T03:38:09;1.90;;;0.80;;
65187;SDS011;51775;51.148;6.950;2023-02-26T03:40:43;1.60;;;0.57;;
65187;SDS011;51775;51.148;6.950;2023-02-26T03:43:21;0.90;;;0.70;;
65187;SDS011;51775;51.148;6.950;2023-02-26T03:45:50;1.20;;;0.70;;
65187;SDS011;51775;51.148;6.950;2023-02-26T03:48:26;1.20;;;0.70;;
65187;SDS011;51775;51.148;6.950;2023-02-26T03:50:55;1.33;;;0.70;;
65187;SDS011;51775;51.148;6.950;2023-02-26T03:53:24;0.95;;;0.60;;
65187;SDS011;51775;51.148;6.950;2023-02-26T03:58:30;1.40;;;0.70;;
65187;SDS011;51775;51.148;6.950;2023-02-26T04:01:00;1.00;;;0.80;;
65187;SDS011;51775;51.148;6.950;2023-02-26T04:06:04;1.30;;;0.77;;
65187;SDS011;51775;51.148;6.950;2023-02-26T04:08:30;1.27;;;0.60;;
65187;SDS011;51775;51.148;6.950;2023-02-26T04:11:06;1.08;;;0.70;;
65187;SDS011;51775;51.148;6.950;2023-02-26T04:13:35;1.08;;;0.70;;
65187;SDS011;51775;51.148;6.950;2023-02-26T04:16:00;0.73;;;0.50;;
65187;SDS011;51775;51.148;6.950;2023-02-26T04:18:26;1.13;;;0.65;;
65187;SDS011;51775;51.148;6.950;2023-02-26T04:20:51;1.40;;;0.80;;
65187;SDS011;51775;51.148;6.950;2023-02-26T04:23:16;1.17;;;0.80;;
65187;SDS011;51775;51.148;6.950;2023-02-26T04:25:42;0.80;;;0.60;;
65187;SDS011;51775;51.148;6.950;2023-02-26T04:28:07;1.65;;;0.60;;
65187;SDS011;51775;51.148;6.950;2023-02-26T04:30:32;0.90;;;0.60;;
65187;SDS011;51775;51.148;6.950;2023-02-26T04:32:58;0.95;;;0.60;;
65187;SDS011;51775;51.148;6.950;2023-02-26T04:35:23;1.98;;;0.80;;
65187;SDS011;51775;51.148;6.950;2023-02-26T04:37:48;1.20;;;0.70;;
65187;SDS011;51775;51.148;6.950;2023-02-26T04:40:14;1.10;;;0.70;;
65187;SDS011;51775;51.148;6.950;2023-02-26T04:42:39;1.10;;;0.60;;
65187;SDS011;51775;51.148;6.950;2023-02-26T04:45:04;1.10;;;0.60;;
65187;SDS011;51775;51.148;6.950;2023-02-26T04:47:30;1.13;;;0.70;;
65187;SDS011;51775;51.148;6.950;2023-02-26T04:49:56;0.98;;;0.65;;
65187;SDS011;51775;51.148;6.950;2023-02-26T04:52:21;0.88;;;0.52;;
65187;SDS011;51775;51.148;6.950;2023-02-26T04:54:46;1.80;;;0.70;;
65187;SDS011;51775;51.148;6.950;2023-02-26T04:57:11;1.00;;;0.70;;
65187;SDS011;51775;51.148;6.950;2023-02-26T04:59:37;1.48;;;0.70;;
65187;SDS011;51775;51.148;6.950;2023-02-26T05:02:02;0.93;;;0.50;;
65187;SDS011;51775;51.148;6.950;2023-02-26T05:04:27;1.10;;;0.60;;
65187;SDS011;51775;51.148;6.950;2023-02-26T05:06:53;1.20;;;0.70;;
65187;SDS011;51775;51.148;6.950;2023-02-26T05:09:18;1.10;;;0.55;;
65187;SDS011;51775;51.148;6.950;2023-02-26T05:11:43;1.33;;;0.60;;
65187;SDS011;51775;51.148;6.950;2023-02-26T05:14:08;1.20;;;0.65;;
65187;SDS011;51775;51.148;6.950;2023-02-26T05:16:34;1.00;;;0.50;;
65187;SDS011;51775;51.148;6.950;2023-02-26T05:18:59;1.17;;;0.70;;
65187;SDS011;51775;51.148;6.950;2023-02-26T05:21:24;0.90;;;0.60;;
65187;SDS011;51775;51.148;6.950;2023-02-26T05:23:49;1.45;;;0.70;;
65187;SDS011;51775;51.148;6.950;2023-02-26T05:26:15;1.55;;;0.50;;
65187;SDS011;51775;51.148;6.950;2023-02-26T05:28:40;1.23;;;0.70;;
65187;SDS011;51775;51.148;6.950;2023-02-26T05:31:05;1.00;;;0.60;;
65187;SDS011;51775;51.148;6.950;2023-02-26T05:33:31;1.10;;;0.63;;
65187;SDS011;51775;51.148;6.950;2023-02-26T05:35:56;0.98;;;0.70;;
65187;SDS011;51775;51.148;6.950;2023-02-26T05:38:21;1.30;;;0.80;;
65187;SDS011;51775;51.148;6.950;2023-02-26T05:40:47;1.23;;;0.50;;
65187;SDS011;51775;51.148;6.950;2023-02-26T05:43:12;2.33;;;0.75;;
65187;SDS011;51775;51.148;6.950;2023-02-26T05:45:37;1.23;;;0.60;;
65187;SDS011;51775;51.148;6.950;2023-02-26T05:48:03;1.00;;;0.70;;
65187;SDS011;51775;51.148;6.950;2023-02-26T05:50:28;0.47;;;0.45;;
65187;SDS011;51775;51.148;6.950;2023-02-26T05:52:53;0.98;;;0.60;;
65187;SDS011;51775;51.148;6.950;2023-02-26T05:55:19;0.63;;;0.50;;
65187;SDS011;51775;51.148;6.950;2023-02-26T05:57:44;1.23;;;0.70;;
65187;SDS011;51775;51.148;6.950;2023-02-26T06:00:09;0.98;;;0.65;;
65187;SDS011;51775;51.148;6.950;2023-02-26T06:02:35;1.38;;;0.80;;
65187;SDS011;51775;51.148;6.950;2023-02-26T06:05:01;1.17;;;0.70;;
65187;SDS011;51775;51.148;6.950;2023-02-26T06:07:26;0.82;;;0.52;;
65187;SDS011;51775;51.148;6.950;2023-02-26T06:09:51;2.13;;;1.10;;
65187;SDS011;51775;51.148;6.950;2023-02-26T06:12:17;2.17;;;0.82;;
65187;SDS011;51775;51.148;6.950;2023-02-26T06:14:42;0.90;;;0.60;;
65187;SDS011;51775;51.148;6.950;2023-02-26T06:17:07;0.65;;;0.60;;
65187;SDS011;51775;51.148;6.950;2023-02-26T06:19:33;2.10;;;1.08;;
65187;SDS011;51775;51.148;6.950;2023-02-26T06:21:58;0.82;;;0.70;;
65187;SDS011;51775;51.148;6.950;2023-02-26T06:24:24;1.10;;;0.70;;
65187;SDS011;51775;51.148;6.950;2023-02-26T06:26:49;1.23;;;0.68;;
65187;SDS011;51775;51.148;6.950;2023-02-26T06:29:15;0.82;;;0.60;;
65187;SDS011;51775;51.148;6.950;2023-02-26T06:31:40;1.30;;;0.50;;
65187;SDS011;51775;51.148;6.950;2023-02-26T06:34:05;1.13;;;0.60;;
65187;SDS011;51775;51.148;6.950;2023-02-26T06:36:31;0.90;;;0.50;;
65187;SDS011;51775;51.148;6.950;2023-02-26T06:38:56;1.17;;;0.68;;
65187;SDS011;51775;51.148;6.950;2023-02-26T06:41:21;0.82;;;0.50;;
65187;SDS011;51775;51.148;6.950;2023-02-26T06:43:46;0.52;;;0.50;;
65187;SDS011;51775;51.148;6.950;2023-02-26T06:46:12;0.70;;;0.40;;
65187;SDS011;51775;51.148;6.950;2023-02-26T06:48:37;1.05;;;0.60;;
65187;SDS011;51775;51.148;6.950;2023-02-26T06:51:03;1.25;;;0.70;;
65187;SDS011;51775;51.148;6.950;2023-02-26T06:53:29;0.70;;;0.50;;
65187;SDS011;51775;51.148;6.950;2023-02-26T06:55:54;1.30;;;0.70;;
65187;SDS011;51775;51.148;6.950;2023-02-26T06:58:19;1.63;;;0.60;;
65187;SDS011;51775;51.148;6.950;2023-02-26T07:00:45;2.05;;;0.68;;
65187;SDS011;51775;51.148;6.950;2023-02-26T07:03:12;0.85;;;0.50;;
65187;SDS011;51775;51.148;6.950;2023-02-26T07:05:38;1.40;;;0.70;;
65187;SDS011;51775;51.148;6.950;2023-02-26T07:08:04;0.98;;;0.60;;
65187;SDS011;51775;51.148;6.950;2023-02-26T07:10:31;1.40;;;0.60;;
65187;SDS011;51775;51.148;6.950;2023-02-26T07:12:57;2.38;;;0.70;;
65187;SDS011;51775;51.148;6.950;2023-02-26T07:15:22;2.20;;;0.70;;
65187;SDS011;51775;51.148;6.950;2023-02-26T07:17:47;1.48;;;0.70;;
65187;SDS011;51775;51.148;6.950;2023-02-26T07:20:13;3.72;;;0.80;;
65187;SDS011;51775;51.148;6.950;2023-02-26T07:22:38;3.10;;;0.90;;
65187;SDS011;51775;51.148;6.950;2023-02-26T07:25:04;1.85;;;0.98;;
65187;SDS011;51775;51.148;6.950;2023-02-26T07:27:30;1.00;;;0.60;;
65187;SDS011;51775;51.148;6.950;2023-02-26T07:29:55;2.33;;;0.80;;
65187;SDS011;51775;51.148;6.950;2023-02-26T07:32:21;2.28;;;0.90;;
65187;SDS011;51775;51.148;6.950;2023-02-26T07:34:46;1.42;;;0.70;;
65187;SDS011;51775;51.148;6.950;2023-02-26T07:37:11;1.75;;;1.00;;
65187;SDS011;51775;51.148;6.950;2023-02-26T07:39:37;1.10;;;0.70;;
65187;SDS011;51775;51.148;6.950;2023-02-26T07:42:02;1.40;;;0.77;;
65187;SDS011;51775;51.148;6.950;2023-02-26T07:44:28;1.17;;;0.70;;
65187;SDS011;51775;51.148;6.950;2023-02-26T07:46:53;2.03;;;0.77;;
65187;SDS011;51775;51.148;6.950;2023-02-26T07:49:18;1.55;;;0.80;;
65187;SDS011;51775;51.148;6.950;2023-02-26T07:51:44;1.33;;;0.63;;
65187;SDS011;51775;51.148;6.950;2023-02-26T07:54:09;1.42;;;0.80;;
65187;SDS011;51775;51.148;6.950;2023-02-26T07:56:34;1.55;;;0.70;;
65187;SDS011;51775;51.148;6.950;2023-02-26T07:59:00;1.77;;;0.70;;
65187;SDS011;51775;51.148;6.950;2023-02-26T08:01:25;0.82;;;0.60;;
65187;SDS011;51775;51.148;6.950;2023-02-26T08:03:50;1.25;;;0.75;;
65187;SDS011;51775;51.148;6.950;2023-02-26T08:06:15;1.80;;;0.80;;
65187;SDS011;51775;51.148;6.950;2023-02-26T08:08:41;1.65;;;0.77;;
65187;SDS011;51775;51.148;6.950;2023-02-26T08:11:06;1.50;;;0.68;;
65187;SDS011;51775;51.148;6.950;2023-02-26T08:13:31;1.20;;;0.70;;
65187;SDS011;51775;51.148;6.950;2023-02-26T08:15:56;1.50;;;0.80;;
65187;SDS011;51775;51.148;6.950;2023-02-26T08:18:22;3.58;;;0.70;;
65187;SDS011;51775;51.148;6.950;2023-02-26T08:20:49;1.42;;;0.70;;
65187;SDS011;51775;51.148;6.950;2023-02-26T08:23:15;1.52;;;0.80;;
65187;SDS011;51775;51.148;6.950;2023-02-26T08:25:40;1.40;;;0.65;;
65187;SDS011;51775;51.148;6.950;2023-02-26T08:28:05;1.43;;;0.80;;
65187;SDS011;51775;51.148;6.950;2023-02-26T08:30:30;1.13;;;0.60;;
65187;SDS011;51775;51.148;6.950;2023-02-26T08:32:56;1.23;;;0.70;;
65187;SDS011;51775;51.148;6.950;2023-02-26T08:35:21;0.95;;;0.70;;
65187;SDS011;51775;51.148;6.950;2023-02-26T08:37:46;1.45;;;0.82;;
65187;SDS011;51775;51.148;6.950;2023-02-26T08:40:12;1.40;;;0.70;;
65187;SDS011;51775;51.148;6.950;2023-02-26T08:42:38;2.03;;;0.63;;
65187;SDS011;51775;51.148;6.950;2023-02-26T08:45:03;1.20;;;0.70;;
65187;SDS011;51775;51.148;6.950;2023-02-26T08:47:29;1.10;;;0.68;;
65187;SDS011;51775;51.148;6.950;2023-02-26T08:49:54;2.40;;;0.73;;
65187;SDS011;51775;51.148;6.950;2023-02-26T08:52:20;1.48;;;0.85;;
65187;SDS011;51775;51.148;6.950;2023-02-26T08:54:46;2.13;;;0.90;;
65187;SDS011;51775;51.148;6.950;2023-02-26T08:57:11;1.60;;;0.70;;
65187;SDS011;51775;51.148;6.950;2023-02-26T08:59:36;1.42;;;0.80;;
65187;SDS011;51775;51.148;6.950;2023-02-26T09:02:02;1.40;;;0.70;;
65187;SDS011;51775;51.148;6.950;2023-02-26T09:04:27;1.45;;;0.70;;
65187;SDS011;51775;51.148;6.950;2023-02-26T09:06:52;1.60;;;0.68;;
65187;SDS011;51775;51.148;6.950;2023-02-26T09:09:18;2.75;;;0.60;;
65187;SDS011;51775;51.148;6.950;2023-02-26T09:11:43;1.38;;;0.65;;
65187;SDS011;51775;51.148;6.950;2023-02-26T09:14:09;1.00;;;0.60;;
65187;SDS011;51775;51.148;6.950;2023-02-26T09:16:34;1.77;;;0.80;;
65187;SDS011;51775;51.148;6.950;2023-02-26T09:19:00;1.40;;;0.55;;
65187;SDS011;51775;51.148;6.950;2023-02-26T09:21:26;0.63;;;0.50;;
65187;SDS011;51775;51.148;6.950;2023-02-26T09:23:51;1.08;;;0.50;;
65187;SDS011;51775;51.148;6.950;2023-02-26T09:26:17;0.65;;;0.50;;
65187;SDS011;51775;51.148;6.950;2023-02-26T09:28:42;1.98;;;0.80;;
65187;SDS011;51775;51.148;6.950;2023-02-26T09:31:07;1.00;;;0.60;;
65187;SDS011;51775;51.148;6.950;2023-02-26T09:33:33;1.20;;;0.70;;
65187;SDS011;51775;51.148;6.950;2023-02-26T09:35:58;1.15;;;0.70;;
65187;SDS011;51775;51.148;6.950;2023-02-26T09:38:24;2.40;;;0.60;;
65187;SDS011;51775;51.148;6.950;2023-02-26T09:41:01;4.45;;;1.00;;
65187;SDS011;51775;51.148;6.950;2023-02-26T09:46:21;1.83;;;0.75;;
65187;SDS011;51775;51.148;6.950;2023-02-26T09:48:55;5.95;;;0.75;;
65187;SDS011;51775;51.148;6.950;2023-02-26T09:51:35;1.92;;;0.70;;
65187;SDS011;51775;51.148;6.950;2023-02-26T09:54:03;2.38;;;0.90;;
65187;SDS011;51775;51.148;6.950;2023-02-26T09:56:39;1.48;;;0.80;;
65187;SDS011;51775;51.148;6.950;2023-02-26T09:59:04;1.48;;;0.60;;
65187;SDS011;51775;51.148;6.950;2023-02-26T10:17:37;0.75;;;0.55;;
65187;SDS011;51775;51.148;6.950;2023-02-26T10:20:45;1.20;;;0.70;;
65187;SDS011;51775;51.148;6.950;2023-02-26T10:23:25;0.90;;;0.50;;
65187;SDS011;51775;51.148;6.950;2023-02-26T10:34:22;1.60;;;0.60;;
65187;SDS011;51775;51.148;6.950;2023-02-26T10:36:59;1.30;;;0.70;;
65187;SDS011;51775;51.148;6.950;2023-02-26T10:39:35;1.30;;;0.80;;
65187;SDS011;51775;51.148;6.950;2023-02-26T10:42:12;1.13;;;0.60;;
65187;SDS011;51775;51.148;6.950;2023-02-26T10:49:39;1.52;;;0.60;;
65187;SDS011;51775;51.148;6.950;2023-02-26T10:52:16;1.40;;;0.70;;
65187;SDS011;51775;51.148;6.950;2023-02-26T10:57:31;0.85;;;0.55;;
65187;SDS011;51775;51.148;6.950;2023-02-26T11:00:00;1.90;;;0.70;;
65187;SDS011;51775;51.148;6.950;2023-02-26T11:05:00;1.55;;;0.80;;
65187;SDS011;51775;51.148;6.950;2023-02-26T11:07:27;2.38;;;1.10;;
65187;SDS011;51775;51.148;6.950;2023-02-26T11:09:54;1.83;;;0.70;;
65187;SDS011;51775;51.148;6.950;2023-02-26T11:12:21;1.40;;;0.85;;
65187;SDS011;51775;51.148;6.950;2023-02-26T11:14:47;2.85;;;0.70;;
65187;SDS011;51775;51.148;6.950;2023-02-26T11:19:58;1.35;;;0.80;;
65187;SDS011;51775;51.148;6.950;2023-02-26T11:22:44;1.48;;;0.80;;
65187;SDS011;51775;51.148;6.950;2023-02-26T11:25:12;1.10;;;0.53;;
65187;SDS011;51775;51.148;6.950;2023-02-26T11:27:41;1.83;;;0.90;;
65187;SDS011;51775;51.148;6.950;2023-02-26T11:32:44;2.45;;;1.25;;
65187;SDS011;51775;51.148;6.950;2023-02-26T11:35:14;1.70;;;0.90;;
65187;SDS011;51775;51.148;6.950;2023-02-26T11:37:41;1.88;;;0.75;;
65187;SDS011;51775;51.148;6.950;2023-02-26T11:40:21;1.80;;;0.65;;
65187;SDS011;51775;51.148;6.950;2023-02-26T11:42:52;1.85;;;0.80;;
65187;SDS011;51775;51.148;6.950;2023-02-26T11:45:19;1.35;;;0.88;;
65187;SDS011;51775;51.148;6.950;2023-02-26T11:47:46;1.10;;;0.50;;
65187;SDS011;51775;51.148;6.950;2023-02-26T11:50:14;1.20;;;0.73;;
65187;SDS011;51775;51.148;6.950;2023-02-26T11:52:44;1.48;;;0.70;;
65187;SDS011;51775;51.148;6.950;2023-02-26T11:57:52;1.67;;;0.80;;
65187;SDS011;51775;51.148;6.950;2023-02-26T12:00:22;1.60;;;0.73;;
65187;SDS011;51775;51.148;6.950;2023-02-26T12:03:01;1.27;;;0.43;;
65187;SDS011;51775;51.148;6.950;2023-02-26T12:05:30;1.20;;;0.60;;
65187;SDS011;51775;51.148;6.950;2023-02-26T12:07:56;1.05;;;0.60;;
65187;SDS011;51775;51.148;6.950;2023-02-26T12:10:24;2.28;;;0.70;;
65187;SDS011;51775;51.148;6.950;2023-02-26T12:16:16;0.88;;;0.50;;
65187;SDS011;51775;51.148;6.950;2023-02-26T12:21:51;1.25;;;0.70;;
65187;SDS011;51775;51.148;6.950;2023-02-26T12:27:42;1.45;;;0.70;;
65187;SDS011;51775;51.148;6.950;2023-02-26T12:38:49;0.82;;;0.60;;
65187;SDS011;51775;51.148;6.950;2023-02-26T12:44:02;0.80;;;0.52;;
65187;SDS011;51775;51.148;6.950;2023-02-26T12:49:26;2.13;;;0.60;;
65187;SDS011;51775;51.148;6.950;2023-02-26T13:03:22;4.07;;;0.60;;
65187;SDS011;51775;51.148;6.950;2023-02-26T13:09:03;0.82;;;0.52;;
65187;SDS011;51775;51.148;6.950;2023-02-26T13:14:35;1.42;;;0.70;;
65187;SDS011;51775;51.148;6.950;2023-02-26T13:20:02;1.10;;;0.60;;
65187;SDS011;51775;51.148;6.950;2023-02-26T13:22:54;1.02;;;0.63;;
65187;SDS011;51775;51.148;6.950;2023-02-26T13:25:27;0.90;;;0.60;;
65187;SDS011;51775;51.148;6.950;2023-02-26T13:27:59;2.15;;;0.70;;
65187;SDS011;51775;51.148;6.950;2023-02-26T13:30:31;1.05;;;0.60;;
65187;SDS011;51775;51.148;6.950;2023-02-26T13:33:02;1.92;;;0.70;;
65187;SDS011;51775;51.148;6.950;2023-02-26T13:35:46;1.23;;;0.68;;
65187;SDS011;51775;51.148;6.950;2023-02-26T13:38:15;1.33;;;0.70;;
65187;SDS011;51775;51.148;6.950;2023-02-26T13:40:50;1.05;;;0.70;;
65187;SDS011;51775;51.148;6.950;2023-02-26T13:48:51;0.90;;;0.63;;
65187;SDS011;51775;51.148;6.950;2023-02-26T13:53:52;1.80;;;0.80;;
65187;SDS011;51775;51.148;6.950;2023-02-26T14:06:42;0.88;;;0.60;;
65187;SDS011;51775;51.148;6.950;2023-02-26T14:14:40;1.05;;;0.55;;
65187;SDS011;51775;51.148;6.950;2023-02-26T14:19:42;0.90;;;0.60;;
65187;SDS011;51775;51.148;6.950;2023-02-26T14:24:56;0.75;;;0.50;;
65187;SDS011;51775;51.148;6.950;2023-02-26T14:35:08;0.85;;;0.50;;
65187;SDS011;51775;51.148;6.950;2023-02-26T14:37:36;1.02;;;0.60;;
65187;SDS011;51775;51.148;6.950;2023-02-26T14:40:15;1.50;;;0.73;;
65187;SDS011;51775;51.148;6.950;2023-02-26T14:42:44;0.98;;;0.47;;
65187;SDS011;51775;51.148;6.950;2023-02-26T14:47:40;1.70;;;0.70;;
65187;SDS011;51775;51.148;6.950;2023-02-26T14:50:05;0.90;;;0.50;;
65187;SDS011;51775;51.148;6.950;2023-02-26T14:52:38;1.83;;;0.68;;
65187;SDS011;51775;51.148;6.950;2023-02-26T14:55:39;1.13;;;0.47;;
65187;SDS011;51775;51.148;6.950;2023-02-26T15:03:40;0.63;;;0.50;;
65187;SDS011;51775;51.148;6.950;2023-02-26T15:06:15;1.00;;;0.60;;
65187;SDS011;51775;51.148;6.950;2023-02-26T15:09:06;1.10;;;0.68;;
65187;SDS011;51775;51.148;6.950;2023-02-26T15:11:55;1.30;;;0.70;;
65187;SDS011;51775;51.148;6.950;2023-02-26T15:14:43;0.90;;;0.57;;
65187;SDS011;51775;51.148;6.950;2023-02-26T15:22:32;0.65;;;0.40;;
65187;SDS011;51775;51.148;6.950;2023-02-26T15:25:33;1.10;;;0.60;;
65187;SDS011;51775;51.148;6.950;2023-02-26T15:27:59;2.50;;;0.80;;
65187;SDS011;51775;51.148;6.950;2023-02-26T15:30:29;1.55;;;0.73;;
65187;SDS011;51775;51.148;6.950;2023-02-26T15:32:57;1.15;;;0.70;;
65187;SDS011;51775;51.148;6.950;2023-02-26T15:35:26;1.05;;;0.55;;
65187;SDS011;51775;51.148;6.950;2023-02-26T15:37:54;1.35;;;0.50;;
65187;SDS011;51775;51.148;6.950;2023-02-26T15:40:21;1.08;;;0.50;;
65187;SDS011;51775;51.148;6.950;2023-02-26T15:42:49;1.30;;;0.50;;
65187;SDS011;51775;51.148;6.950;2023-02-26T15:45:21;1.27;;;0.70;;
65187;SDS011;51775;51.148;6.950;2023-02-26T15:47:51;0.77;;;0.50;;
65187;SDS011;51775;51.148;6.950;2023-02-26T15:50:20;0.63;;;0.40;;
65187;SDS011;51775;51.148;6.950;2023-02-26T15:52:50;1.00;;;0.60;;
65187;SDS011;51775;51.148;6.950;2023-02-26T15:55:19;1.27;;;0.60;;
65187;SDS011;51775;51.148;6.950;2023-02-26T15:57:46;2.28;;;0.55;;
65187;SDS011;51775;51.148;6.950;2023-02-26T16:00:15;1.30;;;0.60;;
65187;SDS011;51775;51.148;6.950;2023-02-26T16:02:43;0.93;;;0.60;;
65187;SDS011;51775;51.148;6.950;2023-02-26T16:05:09;0.80;;;0.60;;
65187;SDS011;51775;51.148;6.950;2023-02-26T16:07:36;1.25;;;0.60;;
65187;SDS011;51775;51.148;6.950;2023-02-26T16:10:06;1.25;;;0.50;;
65187;SDS011;51775;51.148;6.950;2023-02-26T16:12:39;1.48;;;0.63;;
65187;SDS011;51775;51.148;6.950;2023-02-26T16:15:10;1.13;;;0.68;;
65187;SDS011;51775;51.148;6.950;2023-02-26T16:17:41;0.77;;;0.55;;
65187;SDS011;51775;51.148;6.950;2023-02-26T16:20:15;1.33;;;0.60;;
65187;SDS011;51775;51.148;6.950;2023-02-26T16:22:47;1.17;;;0.52;;
65187;SDS011;51775;51.148;6.950;2023-02-26T16:25:16;1.02;;;0.70;;
65187;SDS011;51775;51.148;6.950;2023-02-26T16:27:51;1.30;;;0.65;;
65187;SDS011;51775;51.148;6.950;2023-02-26T16:30:23;1.77;;;0.80;;
65187;SDS011;51775;51.148;6.950;2023-02-26T16:32:55;1.40;;;0.80;;
65187;SDS011;51775;51.148;6.950;2023-02-26T16:35:22;1.50;;;0.80;;
65187;SDS011;51775;51.148;6.950;2023-02-26T16:37:52;1.58;;;0.70;;
65187;SDS011;51775;51.148;6.950;2023-02-26T16:40:25;1.42;;;0.80;;
65187;SDS011;51775;51.148;6.950;2023-02-26T16:48:02;2.15;;;0.60;;
65187;SDS011;51775;51.148;6.950;2023-02-26T16:50:32;1.23;;;0.63;;
65187;SDS011;51775;51.148;6.950;2023-02-26T16:55:33;0.95;;;0.60;;
65187;SDS011;51775;51.148;6.950;2023-02-26T16:58:01;1.70;;;0.60;;
65187;SDS011;51775;51.148;6.950;2023-02-26T17:00:28;0.82;;;0.55;;
65187;SDS011;51775;51.148;6.950;2023-02-26T17:02:54;0.73;;;0.60;;
65187;SDS011;51775;51.148;6.950;2023-02-26T17:05:33;1.42;;;0.70;;
65187;SDS011;51775;51.148;6.950;2023-02-26T17:08:15;1.40;;;0.77;;
65187;SDS011;51775;51.148;6.950;2023-02-26T17:10:44;0.98;;;0.70;;
65187;SDS011;51775;51.148;6.950;2023-02-26T17:13:13;2.03;;;0.70;;
65187;SDS011;51775;51.148;6.950;2023-02-26T17:15:44;1.13;;;0.75;;
65187;SDS011;51775;51.148;6.950;2023-02-26T17:18:11;1.67;;;0.70;;
65187;SDS011;51775;51.148;6.950;2023-02-26T17:20:37;4.07;;;1.70;;
65187;SDS011;51775;51.148;6.950;2023-02-26T17:23:03;1.08;;;0.75;;
65187;SDS011;51775;51.148;6.950;2023-02-26T17:25:32;1.42;;;0.80;;
65187;SDS011;51775;51.148;6.950;2023-02-26T17:28:00;1.33;;;0.80;;
65187;SDS011;51775;51.148;6.950;2023-02-26T17:30:29;1.50;;;0.80;;
65187;SDS011;51775;51.148;6.950;2023-02-26T17:32:58;1.70;;;0.80;;
65187;SDS011;51775;51.148;6.950;2023-02-26T17:35:25;1.95;;;1.00;;
65187;SDS011;51775;51.148;6.950;2023-02-26T17:37:50;0.80;;;0.63;;
65187;SDS011;51775;51.148;6.950;2023-02-26T17:42:48;1.13;;;0.70;;
65187;SDS011;51775;51.148;6.950;2023-02-26T17:45:13;2.67;;;1.00;;
65187;SDS011;51775;51.148;6.950;2023-02-26T17:47:39;1.42;;;0.90;;
65187;SDS011;51775;51.148;6.950;2023-02-26T17:50:23;2.58;;;1.15;;
65187;SDS011;51775;51.148;6.950;2023-02-26T17:52:57;1.30;;;0.80;;
65187;SDS011;51775;51.148;6.950;2023-02-26T17:55:23;2.40;;;1.10;;
65187;SDS011;51775;51.148;6.950;2023-02-26T17:57:48;1.77;;;1.17;;
65187;SDS011;51775;51.148;6.950;2023-02-26T18:00:14;3.17;;;1.30;;
65187;SDS011;51775;51.148;6.950;2023-02-26T18:02:40;3.03;;;1.20;;
65187;SDS011;51775;51.148;6.950;2023-02-26T18:05:06;1.73;;;0.90;;
65187;SDS011;51775;51.148;6.950;2023-02-26T18:07:32;1.92;;;1.00;;
65187;SDS011;51775;51.148;6.950;2023-02-26T18:09:57;3.28;;;1.20;;
65187;SDS011;51775;51.148;6.950;2023-02-26T18:12:22;2.38;;;1.10;;
65187;SDS011;51775;51.148;6.950;2023-02-26T18:14:48;2.38;;;1.23;;
65187;SDS011;51775;51.148;6.950;2023-02-26T18:17:15;2.35;;;1.30;;
65187;SDS011;51775;51.148;6.950;2023-02-26T18:19:47;2.00;;;1.20;;
65187;SDS011;51775;51.148;6.950;2023-02-26T18:22:12;3.72;;;1.10;;
65187;SDS011;51775;51.148;6.950;2023-02-26T18:24:38;1.55;;;1.10;;
65187;SDS011;51775;51.148;6.950;2023-02-26T18:27:04;2.42;;;1.40;;
65187;SDS011;51775;51.148;6.950;2023-02-26T18:29:29;2.47;;;1.40;;
65187;SDS011;51775;51.148;6.950;2023-02-26T18:31:54;1.98;;;1.33;;
65187;SDS011;51775;51.148;6.950;2023-02-26T18:34:19;2.10;;;1.20;;